createdAt,value
2022-09-17T00:01:31.377Z,11.80
2022-09-17T00:04:04.056Z,11.80
2022-09-17T00:06:33.559Z,11.80
2022-09-17T00:09:01.880Z,11.80
2022-09-17T00:11:34.074Z,11.80
2022-09-17T00:14:04.011Z,11.80
2022-09-17T00:16:34.571Z,11.80
2022-09-17T00:19:03.533Z,11.80
2022-09-17T00:21:32.700Z,11.80
2022-09-17T00:24:03.604Z,11.70
2022-09-17T00:26:33.988Z,11.60
2022-09-17T00:29:02.913Z,11.60
2022-09-17T00:31:31.693Z,11.60
2022-09-17T00:34:00.590Z,11.60
2022-09-17T00:36:29.431Z,11.40
2022-09-17T00:38:59.787Z,11.50
2022-09-17T00:41:30.670Z,11.40
2022-09-17T00:44:01.775Z,11.60
2022-09-17T00:46:34.883Z,11.60
2022-09-17T00:49:07.148Z,11.60
2022-09-17T00:51:38.190Z,11.60
2022-09-17T00:54:09.427Z,11.50
2022-09-17T00:56:40.711Z,11.50
2022-09-17T00:59:10.692Z,11.50
2022-09-17T01:01:39.276Z,11.50
2022-09-17T01:04:07.700Z,11.40
2022-09-17T01:06:41.947Z,11.40
2022-09-17T01:09:28.791Z,11.40
2022-09-17T01:12:15.312Z,11.40
2022-09-17T01:15:01.468Z,11.40
2022-09-17T01:17:35.107Z,11.40
2022-09-17T01:20:34.627Z,11.30
2022-09-17T01:23:29.801Z,11.30
2022-09-17T01:26:12.421Z,11.40
2022-09-17T01:28:46.476Z,11.40
2022-09-17T01:31:36.033Z,11.30
2022-09-17T01:34:14.479Z,11.30
2022-09-17T01:36:56.043Z,11.30
2022-09-17T01:39:33.045Z,11.20
2022-09-17T01:42:11.362Z,11.30
2022-09-17T01:44:47.009Z,11.30
2022-09-17T01:47:22.790Z,11.40
2022-09-17T01:49:54.568Z,11.50
2022-09-17T01:52:24.379Z,11.50
2022-09-17T01:54:56.275Z,11.50
2022-09-17T01:57:29.397Z,11.50
2022-09-17T02:00:03.576Z,11.50
2022-09-17T02:02:38.738Z,11.40
2022-09-17T02:05:10.381Z,11.40
2022-09-17T02:07:43.454Z,11.50
2022-09-17T02:10:18.266Z,11.50
2022-09-17T02:12:50.262Z,11.50
2022-09-17T02:15:25.302Z,11.50
2022-09-17T02:18:00.101Z,11.50
2022-09-17T02:20:37.045Z,11.40
2022-09-17T02:23:13.735Z,11.50
2022-09-17T02:25:47.465Z,11.40
2022-09-17T02:28:22.036Z,11.30
2022-09-17T02:30:50.606Z,11.30
2022-09-17T02:33:21.497Z,11.30
2022-09-17T02:35:49.614Z,11.20
2022-09-17T02:38:23.797Z,11.00
2022-09-17T02:40:56.077Z,10.90
2022-09-17T02:43:33.969Z,11.00
2022-09-17T02:46:17.874Z,11.10
2022-09-17T02:49:11.559Z,11.10
2022-09-17T02:51:48.592Z,11.10
2022-09-17T02:54:27.091Z,11.20
2022-09-17T02:57:06.313Z,11.10
2022-09-17T02:59:42.489Z,11.10
2022-09-17T03:02:18.479Z,11.10
2022-09-17T03:04:50.414Z,11.00
2022-09-17T03:07:21.034Z,11.00
2022-09-17T03:09:49.170Z,10.90
2022-09-17T03:12:18.111Z,10.90
2022-09-17T03:14:46.311Z,10.90
2022-09-17T03:17:14.996Z,10.90
2022-09-17T03:19:43.147Z,10.90
2022-09-17T03:22:12.614Z,10.80
2022-09-17T03:24:40.777Z,10.80
2022-09-17T03:27:08.892Z,10.80
2022-09-17T03:29:36.981Z,10.90
2022-09-17T03:32:05.832Z,10.80
2022-09-17T03:34:33.947Z,10.80
2022-09-17T03:37:02.403Z,10.80
2022-09-17T03:39:32.318Z,10.80
2022-09-17T03:42:00.420Z,10.90
2022-09-17T03:44:28.563Z,11.00
2022-09-17T03:46:56.756Z,10.90
2022-09-17T03:49:25.181Z,10.80
2022-09-17T03:51:53.286Z,10.80
2022-09-17T03:54:21.485Z,10.80
2022-09-17T03:56:50.972Z,10.80
2022-09-17T03:59:19.108Z,10.90
2022-09-17T04:01:47.299Z,10.90
2022-09-17T04:04:18.936Z,10.90
2022-09-17T04:06:47.229Z,10.90
2022-09-17T04:09:15.356Z,10.90
2022-09-17T04:11:43.471Z,10.90
2022-09-17T04:14:12.950Z,10.90
2022-09-17T04:16:41.020Z,10.90
2022-09-17T04:19:09.322Z,10.90
2022-09-17T04:21:37.455Z,10.90
2022-09-17T04:24:05.775Z,10.90
2022-09-17T04:26:33.887Z,10.80
2022-09-17T04:29:02.223Z,10.80
2022-09-17T04:31:31.925Z,10.80
2022-09-17T04:34:00.162Z,10.80
2022-09-17T04:36:28.497Z,10.80
2022-09-17T04:38:56.567Z,10.80
2022-09-17T04:41:24.814Z,10.70
2022-09-17T04:43:52.977Z,10.80
2022-09-17T04:46:21.161Z,10.80
2022-09-17T04:48:50.650Z,10.80
2022-09-17T04:51:18.713Z,10.70
2022-09-17T04:53:46.851Z,10.70
2022-09-17T04:56:15.019Z,10.70
2022-09-17T04:58:43.138Z,10.70
2022-09-17T05:01:11.405Z,10.80
2022-09-17T05:03:39.595Z,10.70
2022-09-17T05:06:09.193Z,10.70
2022-09-17T05:08:37.510Z,10.70
2022-09-17T05:11:06.151Z,10.80
2022-09-17T05:13:34.267Z,10.80
2022-09-17T05:16:02.527Z,10.70
2022-09-17T05:18:30.677Z,10.60
2022-09-17T05:20:59.438Z,10.60
2022-09-17T05:23:28.904Z,10.60
2022-09-17T05:26:00.155Z,10.50
2022-09-17T05:28:28.276Z,10.50
2022-09-17T05:30:56.536Z,10.50
2022-09-17T05:33:24.688Z,10.60
2022-09-17T05:35:52.800Z,10.60
2022-09-17T05:38:20.899Z,10.60
2022-09-17T05:40:50.629Z,10.50
2022-09-17T05:43:19.007Z,10.50
2022-09-17T05:45:47.251Z,10.40
2022-09-17T05:48:16.516Z,10.50
2022-09-17T05:50:44.604Z,10.60
2022-09-17T05:53:13.758Z,10.70
2022-09-17T05:55:41.907Z,10.60
2022-09-17T05:58:16.693Z,10.60
2022-09-17T06:00:48.702Z,10.60
2022-09-17T06:03:18.686Z,10.70
2022-09-17T06:05:54.659Z,10.70
2022-09-17T06:08:23.017Z,10.60
2022-09-17T06:10:51.430Z,10.70
2022-09-17T06:13:21.916Z,10.60
2022-09-17T06:15:53.897Z,10.70
2022-09-17T06:18:24.238Z,10.80
2022-09-17T06:20:56.009Z,10.70
2022-09-17T06:23:24.325Z,10.60
2022-09-17T06:25:55.385Z,10.60
2022-09-17T06:28:25.388Z,10.60
2022-09-17T06:30:54.636Z,10.60
2022-09-17T06:33:25.049Z,10.40
2022-09-17T06:36:00.240Z,10.50
2022-09-17T06:38:28.866Z,10.70
2022-09-17T06:40:59.892Z,10.80
2022-09-17T06:43:29.693Z,10.90
2022-09-17T06:45:59.775Z,10.90
2022-09-17T06:48:28.987Z,11.00
2022-09-17T06:50:57.237Z,11.00
2022-09-17T06:53:26.237Z,11.10
2022-09-17T06:55:57.415Z,11.10
2022-09-17T06:58:31.028Z,11.30
2022-09-17T07:01:01.330Z,11.30
2022-09-17T07:03:35.092Z,11.30
2022-09-17T07:06:04.339Z,11.30
2022-09-17T07:08:34.735Z,11.30
2022-09-17T07:11:05.734Z,11.30
2022-09-17T07:13:35.795Z,11.30
2022-09-17T07:16:05.634Z,11.40
2022-09-17T07:18:34.013Z,11.40
2022-09-17T07:21:03.740Z,11.60
2022-09-17T07:23:33.094Z,11.70
2022-09-17T07:26:02.831Z,11.70
2022-09-17T07:28:31.306Z,11.70
2022-09-17T07:31:04.745Z,11.70
2022-09-17T07:33:33.245Z,11.70
2022-09-17T07:36:03.225Z,11.80
2022-09-17T07:38:32.160Z,11.80
2022-09-17T07:41:01.375Z,11.80
2022-09-17T07:43:31.478Z,11.90
2022-09-17T07:46:02.262Z,12.00
2022-09-17T07:48:31.386Z,12.00
2022-09-17T07:50:59.700Z,12.00
2022-09-17T07:53:28.674Z,12.20
2022-09-17T07:55:58.467Z,12.30
2022-09-17T07:58:30.908Z,12.50
2022-09-17T08:01:03.763Z,12.80
2022-09-17T08:03:31.904Z,12.80
2022-09-17T08:06:04.922Z,12.70
2022-09-17T08:08:33.925Z,12.70
2022-09-17T08:11:03.237Z,12.60
2022-09-17T08:13:31.933Z,12.50
2022-09-17T08:16:02.432Z,12.50
2022-09-17T08:18:31.199Z,12.70
2022-09-17T08:20:59.743Z,13.00
2022-09-17T08:23:28.564Z,12.90
2022-09-17T08:25:57.207Z,12.80
2022-09-17T08:28:27.041Z,12.80
2022-09-17T08:30:55.920Z,12.80
2022-09-17T08:33:25.558Z,12.80
2022-09-17T08:35:54.289Z,12.70
2022-09-17T08:38:22.859Z,12.70
2022-09-17T08:41:04.892Z,12.50
2022-09-17T08:43:36.672Z,12.50
2022-09-17T08:46:05.054Z,12.50
2022-09-17T08:48:43.041Z,12.30
2022-09-17T08:51:24.982Z,12.40
2022-09-17T08:54:01.910Z,12.40
2022-09-17T08:56:33.792Z,12.60
2022-09-17T08:59:21.791Z,12.60
2022-09-17T09:02:02.064Z,12.60
2022-09-17T09:04:58.407Z,12.60
2022-09-17T09:07:29.011Z,12.30
2022-09-17T09:10:06.185Z,12.30
2022-09-17T09:12:36.953Z,12.40
2022-09-17T09:15:09.454Z,12.70
2022-09-17T09:17:43.123Z,12.80
2022-09-17T09:20:19.830Z,12.80
2022-09-17T09:22:50.955Z,12.90
2022-09-17T09:25:24.528Z,13.20
2022-09-17T09:28:04.094Z,13.00
2022-09-17T09:30:41.229Z,13.20
2022-09-17T09:33:15.517Z,13.40
2022-09-17T09:35:46.302Z,13.40
2022-09-17T09:38:23.800Z,13.40
2022-09-17T09:40:58.099Z,13.40
2022-09-17T09:44:02.185Z,13.50
2022-09-17T09:46:41.987Z,13.80
2022-09-17T09:49:18.675Z,13.70
2022-09-17T09:51:59.979Z,13.80
2022-09-17T09:54:40.895Z,13.80
2022-09-17T09:57:13.847Z,13.80
2022-09-17T09:59:42.516Z,13.60
2022-09-17T10:02:11.418Z,13.70
2022-09-17T10:04:39.571Z,14.00
2022-09-17T10:07:10.836Z,13.90
2022-09-17T10:09:46.057Z,13.80
2022-09-17T10:12:18.576Z,13.60
2022-09-17T10:14:47.758Z,13.50
2022-09-17T10:17:23.918Z,13.80
2022-09-17T10:20:20.718Z,13.80
2022-09-17T10:22:52.408Z,13.50
2022-09-17T10:25:31.653Z,13.70
2022-09-17T10:28:03.123Z,13.70
2022-09-17T10:30:31.635Z,13.80
2022-09-17T10:33:22.298Z,13.90
2022-09-17T10:35:59.865Z,14.10
2022-09-17T10:38:32.025Z,14.30
2022-09-17T10:41:16.444Z,14.60
2022-09-17T10:43:45.035Z,14.80
2022-09-17T10:46:17.844Z,14.50
2022-09-17T10:48:54.866Z,14.50
2022-09-17T10:51:26.118Z,14.80
2022-09-17T10:54:34.265Z,14.80
2022-09-17T10:57:03.157Z,14.50
2022-09-17T10:59:48.782Z,14.30
2022-09-17T11:02:55.451Z,14.10
2022-09-17T11:05:46.881Z,14.30
2022-09-17T11:08:22.402Z,14.30
2022-09-17T11:11:01.458Z,14.30
2022-09-17T11:13:36.961Z,14.60
2022-09-17T11:16:16.418Z,15.10
2022-09-17T11:18:46.662Z,15.10
2022-09-17T11:21:39.783Z,15.20
2022-09-17T11:24:48.811Z,15.10
2022-09-17T11:27:29.660Z,14.90
2022-09-17T11:30:14.607Z,14.80
2022-09-17T11:33:26.828Z,14.80
2022-09-17T11:36:00.271Z,14.70
2022-09-17T11:38:44.350Z,14.80
2022-09-17T11:41:15.722Z,14.90
2022-09-17T11:43:50.249Z,15.20
2022-09-17T11:46:22.585Z,15.70
2022-09-17T11:48:58.617Z,16.00
2022-09-17T11:51:32.046Z,15.70
2022-09-17T11:54:07.909Z,15.00
2022-09-17T11:56:42.445Z,14.60
2022-09-17T11:59:19.653Z,14.80
2022-09-17T12:01:54.029Z,15.00
2022-09-17T12:04:33.765Z,15.00
2022-09-17T12:07:12.430Z,15.30
2022-09-17T12:09:44.290Z,15.70
2022-09-17T12:12:45.050Z,16.20
2022-09-17T12:15:17.275Z,16.50
2022-09-17T12:18:03.901Z,16.80
2022-09-17T12:20:43.857Z,16.80
2022-09-17T12:23:15.996Z,16.80
2022-09-17T12:25:52.588Z,16.90
2022-09-17T12:28:26.328Z,16.70
2022-09-17T12:31:04.482Z,16.20
2022-09-17T12:33:38.598Z,15.70
2022-09-17T12:36:35.047Z,15.50
2022-09-17T12:39:30.951Z,15.20
2022-09-17T12:42:08.729Z,15.00
2022-09-17T12:44:51.010Z,15.80
2022-09-17T12:47:45.120Z,16.30
2022-09-17T12:50:21.466Z,16.80
2022-09-17T12:53:03.595Z,17.30
2022-09-17T12:55:45.367Z,17.70
2022-09-17T12:58:25.214Z,17.40
2022-09-17T13:00:59.761Z,17.80
2022-09-17T13:03:33.927Z,18.30
2022-09-17T13:06:27.528Z,18.40
2022-09-17T13:09:13.417Z,18.30
2022-09-17T13:12:08.492Z,18.30
2022-09-17T13:14:57.993Z,18.50
2022-09-17T13:17:31.469Z,18.60
2022-09-17T13:20:07.187Z,17.90
2022-09-17T13:22:46.358Z,18.10
2022-09-17T13:25:17.868Z,18.50
2022-09-17T13:27:46.975Z,19.10
2022-09-17T13:30:16.365Z,19.30
2022-09-17T13:32:50.874Z,18.80
2022-09-17T13:35:54.081Z,18.50
2022-09-17T13:38:24.513Z,18.00
2022-09-17T13:40:53.370Z,18.10
2022-09-17T13:43:27.803Z,17.80
2022-09-17T13:46:15.575Z,17.60
2022-09-17T13:48:52.129Z,17.60
2022-09-17T13:51:47.790Z,18.00
2022-09-17T13:54:17.780Z,18.40
2022-09-17T13:56:47.650Z,18.80
2022-09-17T13:59:20.210Z,18.50
2022-09-17T14:02:01.071Z,18.00
2022-09-17T14:04:47.027Z,17.60
2022-09-17T14:07:51.153Z,17.20
2022-09-17T14:10:42.975Z,17.20
2022-09-17T14:13:40.156Z,17.30
2022-09-17T14:16:37.202Z,17.30
2022-09-17T14:19:22.481Z,17.30
2022-09-17T14:22:00.848Z,17.20
2022-09-17T14:24:36.204Z,17.10
2022-09-17T14:27:16.000Z,16.90
2022-09-17T14:30:03.960Z,16.80
2022-09-17T14:32:39.412Z,16.40
2022-09-17T14:35:20.116Z,16.20
2022-09-17T14:37:53.997Z,16.20
2022-09-17T14:40:25.160Z,16.40
2022-09-17T14:42:56.917Z,16.60
2022-09-17T14:45:29.271Z,16.40
2022-09-17T14:48:18.538Z,16.40
2022-09-17T14:50:46.682Z,16.70
2022-09-17T14:53:18.949Z,16.70
2022-09-17T14:55:50.446Z,17.50
2022-09-17T14:58:33.713Z,18.50
2022-09-17T15:01:02.225Z,19.00
2022-09-17T15:03:30.344Z,19.10
2022-09-17T15:05:58.555Z,18.60
2022-09-17T15:08:29.215Z,18.20
2022-09-17T15:11:02.218Z,17.80
2022-09-17T15:13:32.781Z,17.70
2022-09-17T15:16:03.920Z,17.40
2022-09-17T15:18:39.193Z,16.80
2022-09-17T15:21:30.059Z,16.80
2022-09-17T15:24:04.029Z,17.50
2022-09-17T15:26:36.691Z,19.10
2022-09-17T15:29:06.618Z,19.50
2022-09-17T15:31:36.864Z,20.10
2022-09-17T15:34:05.156Z,20.80
2022-09-17T15:36:33.451Z,20.90
2022-09-17T15:39:01.579Z,20.20
2022-09-17T15:41:35.451Z,18.90
2022-09-17T15:44:32.736Z,18.40
2022-09-17T15:47:52.370Z,18.10
2022-09-17T15:50:22.696Z,18.00
2022-09-17T15:52:51.810Z,17.80
2022-09-17T15:55:35.165Z,17.50
2022-09-17T15:58:07.053Z,17.50
2022-09-17T16:00:35.212Z,17.10
2022-09-17T16:04:09.179Z,16.80
2022-09-17T16:06:40.249Z,16.40
2022-09-17T16:09:41.087Z,16.10
2022-09-17T16:12:12.302Z,15.90
2022-09-17T16:14:44.866Z,15.70
2022-09-17T16:17:28.135Z,15.60
2022-09-17T16:19:56.887Z,15.60
2022-09-17T16:22:26.387Z,15.50
2022-09-17T16:24:54.544Z,15.30
2022-09-17T16:27:25.845Z,15.30
2022-09-17T16:30:01.913Z,15.20
2022-09-17T16:32:30.069Z,15.10
2022-09-17T16:34:58.256Z,15.10
2022-09-17T16:37:26.555Z,15.20
2022-09-17T16:39:54.830Z,15.10
2022-09-17T16:42:22.983Z,15.00
2022-09-17T16:44:51.118Z,14.90
2022-09-17T16:47:20.604Z,14.90
2022-09-17T16:49:48.750Z,14.90
2022-09-17T16:52:16.848Z,14.90
2022-09-17T16:54:45.019Z,14.80
2022-09-17T16:57:13.143Z,14.70
2022-09-17T16:59:41.252Z,14.70
2022-09-17T17:02:11.020Z,14.50
2022-09-17T17:04:40.525Z,14.40
2022-09-17T17:07:08.706Z,14.40
2022-09-17T17:09:38.020Z,14.40
2022-09-17T17:12:06.383Z,14.40
2022-09-17T17:14:34.516Z,14.30
2022-09-17T17:17:03.263Z,14.30
2022-09-17T17:19:31.535Z,14.30
2022-09-17T17:22:01.012Z,14.20
2022-09-17T17:24:29.138Z,14.00
2022-09-17T17:26:57.251Z,14.00
2022-09-17T17:29:25.393Z,14.00
2022-09-17T17:31:53.611Z,14.00
2022-09-17T17:34:21.942Z,13.90
2022-09-17T17:36:50.700Z,13.90
2022-09-17T17:39:20.189Z,13.80
2022-09-17T17:41:51.676Z,13.70
2022-09-17T17:44:20.195Z,13.70
2022-09-17T17:46:48.405Z,13.70
2022-09-17T17:49:17.020Z,13.60
2022-09-17T17:51:45.414Z,13.50
2022-09-17T17:54:13.501Z,13.40
2022-09-17T17:56:43.042Z,13.20
2022-09-17T17:59:11.169Z,13.10
2022-09-17T18:01:39.640Z,12.90
2022-09-17T18:04:08.758Z,12.70
2022-09-17T18:06:36.872Z,12.60
2022-09-17T18:09:05.800Z,12.50
2022-09-17T18:11:34.625Z,12.50
2022-09-17T18:14:04.545Z,12.40
2022-09-17T18:16:32.934Z,12.30
2022-09-17T18:19:01.202Z,12.40
2022-09-17T18:21:29.517Z,12.40
2022-09-17T18:23:57.667Z,12.30
2022-09-17T18:26:27.645Z,12.30
2022-09-17T18:28:56.181Z,12.40
2022-09-17T18:31:28.371Z,12.30
2022-09-17T18:33:58.771Z,12.40
2022-09-17T18:36:28.607Z,12.40
2022-09-17T18:39:11.026Z,12.40
2022-09-17T18:41:49.588Z,12.50
2022-09-17T18:44:19.064Z,12.50
2022-09-17T18:46:50.046Z,12.50
2022-09-17T18:49:18.606Z,12.50
2022-09-17T18:51:46.879Z,12.40
2022-09-17T18:54:15.075Z,12.40
2022-09-17T18:56:43.617Z,12.30
2022-09-17T18:59:11.897Z,12.30
2022-09-17T19:01:40.230Z,12.20
2022-09-17T19:04:10.135Z,12.30
2022-09-17T19:06:38.622Z,12.30
2022-09-17T19:09:07.470Z,12.20
2022-09-17T19:11:36.418Z,12.10
2022-09-17T19:14:04.923Z,12.20
2022-09-17T19:16:33.317Z,12.20
2022-09-17T19:19:01.638Z,12.10
2022-09-17T19:21:31.343Z,12.10
2022-09-17T19:23:59.554Z,12.20
2022-09-17T19:26:28.741Z,12.20
2022-09-17T19:28:58.802Z,12.30
2022-09-17T19:31:27.814Z,12.30
2022-09-17T19:33:58.515Z,12.30
2022-09-17T19:36:26.680Z,12.30
2022-09-17T19:38:58.611Z,12.30
2022-09-17T19:41:27.183Z,12.30
2022-09-17T19:43:57.258Z,12.30
2022-09-17T19:46:27.354Z,12.30
2022-09-17T19:48:57.312Z,12.20
2022-09-17T19:51:28.265Z,12.20
2022-09-17T19:53:57.819Z,12.10
2022-09-17T19:56:27.911Z,12.10
2022-09-17T19:58:56.766Z,12.30
2022-09-17T20:01:25.059Z,12.30
2022-09-17T20:03:54.198Z,12.30
2022-09-17T20:06:23.744Z,12.20
2022-09-17T20:08:53.275Z,12.30
2022-09-17T20:11:24.763Z,12.30
2022-09-17T20:13:58.148Z,12.40
2022-09-17T20:16:27.070Z,12.40
2022-09-17T20:18:55.385Z,12.50
2022-09-17T20:21:25.664Z,12.40
2022-09-17T20:23:54.264Z,12.40
2022-09-17T20:26:24.159Z,12.40
2022-09-17T20:28:53.177Z,12.40
2022-09-17T20:31:23.098Z,12.30
2022-09-17T20:33:54.219Z,12.20
2022-09-17T20:36:24.205Z,12.20
2022-09-17T20:41:43.299Z,12.30
2022-09-17T20:44:11.477Z,12.30
2022-09-17T20:46:39.959Z,12.30
2022-09-17T20:49:08.213Z,12.30
2022-09-17T20:51:36.541Z,12.30
2022-09-17T20:54:04.969Z,12.20
2022-09-17T20:56:34.752Z,12.30
2022-09-17T20:59:13.090Z,12.20
2022-09-17T21:01:44.854Z,12.20
2022-09-17T21:04:15.943Z,11.90
2022-09-17T21:06:44.449Z,11.90
2022-09-17T21:09:16.744Z,12.10
2022-09-17T21:11:46.118Z,12.20
2022-09-17T21:14:17.484Z,12.10
2022-09-17T21:16:46.657Z,12.20
2022-09-17T21:19:16.253Z,12.30
2022-09-17T21:21:44.719Z,12.30
2022-09-17T21:24:13.026Z,12.40
2022-09-17T21:26:41.150Z,12.30
2022-09-17T21:29:09.353Z,12.30
2022-09-17T21:31:39.631Z,12.30
2022-09-17T21:34:09.229Z,12.30
2022-09-17T21:36:39.033Z,12.30
2022-09-17T21:39:08.936Z,12.20
2022-09-17T21:41:42.148Z,12.30
2022-09-17T21:44:12.034Z,12.30
2022-09-17T21:46:42.584Z,12.20
2022-09-17T21:49:11.113Z,12.20
2022-09-17T21:51:41.234Z,12.30
2022-09-17T21:54:11.013Z,12.30
2022-09-17T21:56:39.602Z,12.30
2022-09-17T21:59:09.809Z,12.30
2022-09-17T22:01:42.348Z,12.30
2022-09-17T22:04:12.657Z,12.30
2022-09-17T22:06:41.588Z,12.40
2022-09-17T22:09:14.466Z,12.40
2022-09-17T22:11:43.075Z,12.40
2022-09-17T22:14:13.165Z,12.40
2022-09-17T22:16:44.979Z,12.50
2022-09-17T22:19:15.953Z,12.50
2022-09-17T22:21:47.323Z,12.40
2022-09-17T22:24:19.059Z,12.40
2022-09-17T22:26:52.949Z,12.40
2022-09-17T22:29:28.081Z,12.50
2022-09-17T22:31:57.817Z,12.50
2022-09-17T22:34:26.979Z,12.50
2022-09-17T22:36:55.120Z,12.50
2022-09-17T22:39:23.691Z,12.60
2022-09-17T22:41:51.776Z,12.50
2022-09-17T22:44:21.078Z,12.60
2022-09-17T22:46:51.663Z,12.60
2022-09-17T22:49:21.543Z,12.60
2022-09-17T22:51:52.215Z,12.60
2022-09-17T22:54:20.757Z,12.60
2022-09-17T22:56:49.208Z,12.60
2022-09-17T22:59:18.222Z,12.60
2022-09-17T23:01:46.729Z,12.50
2022-09-17T23:04:14.945Z,12.50
2022-09-17T23:06:44.401Z,12.50
2022-09-17T23:09:14.260Z,12.60
2022-09-17T23:11:42.399Z,12.50
2022-09-17T23:14:13.338Z,12.30
2022-09-17T23:16:43.223Z,12.20
2022-09-17T23:19:12.498Z,12.10
2022-09-17T23:21:40.947Z,12.10
2022-09-17T23:24:11.575Z,12.10
2022-09-17T23:26:39.680Z,12.00
2022-09-17T23:29:08.201Z,12.00
2022-09-17T23:31:36.367Z,12.00
2022-09-17T23:34:06.063Z,12.00
2022-09-17T23:36:36.096Z,11.90
2022-09-17T23:39:06.190Z,11.90
2022-09-17T23:41:37.831Z,11.90
2022-09-17T23:44:13.707Z,11.90
2022-09-17T23:46:44.317Z,12.00
2022-09-17T23:49:13.578Z,12.00
2022-09-17T23:51:41.983Z,11.90
2022-09-17T23:54:10.367Z,11.90
2022-09-17T23:56:40.008Z,11.90
2022-09-17T23:59:08.567Z,11.80
